Time;durP1;ratioP1;P1;durP2;ratioP2;P2;SDS_P1;SDS_P2;PMS_P1;PMS_P2;Temp;Humidity;BMP_temperature;BMP_pressure;BME280_temperature;BME280_humidity;BME280_pressure;Samples;Min_cycle;Max_cycle;Signal;HPM_P1;HPM_P2
2023/02/22 00:00:49;;;;;;;3.90;3.55;;;2.50;99.90;;;;;;5012696;28;20080;-81
2023/02/22 00:03:24;;;;;;;5.32;3.97;;;2.50;99.90;;;;;;5025387;28;20038;-80
2023/02/22 00:05:57;;;;;;;7.22;4.45;;;2.60;99.90;;;;;;5021737;28;20029;-81
2023/02/22 00:08:29;;;;;;;24.27;10.65;;;2.70;99.90;;;;;;5018355;28;20481;-81
2023/02/22 00:10:58;;;;;;;31.67;11.00;;;2.80;99.90;;;;;;5020027;28;20034;-80
2023/02/22 00:13:24;;;;;;;11.38;7.38;;;2.70;99.90;;;;;;5023647;28;20140;-79
2023/02/22 00:15:50;;;;;;;12.55;5.60;;;2.40;99.90;;;;;;5017862;28;20065;-81
2023/02/22 00:18:17;;;;;;;9.77;5.57;;;2.30;99.90;;;;;;5018645;28;20006;-80
2023/02/22 00:20:44;;;;;;;8.27;4.90;;;2.10;99.90;;;;;;5022532;28;20042;-80
2023/02/22 00:23:21;;;;;;;6.53;4.63;;;2.20;99.90;;;;;;5024057;28;20428;-81
2023/02/22 00:25:50;;;;;;;3.28;2.45;;;2.20;99.90;;;;;;5015099;28;20033;-81
2023/02/22 00:28:19;;;;;;;4.80;3.00;;;1.70;99.90;;;;;;5012542;28;20131;-80
2023/02/22 00:30:47;;;;;;;3.75;2.83;;;1.30;99.90;;;;;;5018794;28;20038;-80
2023/02/22 00:33:13;;;;;;;9.00;3.78;;;1.20;99.90;;;;;;5016636;28;20062;-80
2023/02/22 00:35:39;;;;;;;4.97;3.00;;;1.30;99.90;;;;;;5018133;28;20042;-80
2023/02/22 00:38:06;;;;;;;6.07;4.03;;;1.30;99.90;;;;;;5018680;28;20331;-80
2023/02/22 00:40:33;;;;;;;7.47;3.83;;;1.50;99.90;;;;;;5031522;28;20020;-80
2023/02/22 00:43:03;;;;;;;3.85;3.30;;;1.70;99.90;;;;;;5015564;28;20083;-80
2023/02/22 00:45:30;;;;;;;4.03;2.85;;;1.80;99.90;;;;;;5021056;28;20029;-80
2023/02/22 00:47:57;;;;;;;3.28;2.97;;;1.90;99.90;;;;;;5021462;28;20120;-80
2023/02/22 00:50:25;;;;;;;9.65;5.10;;;2.00;99.90;;;;;;5032459;28;20057;-80
2023/02/22 00:52:51;;;;;;;54.78;19.55;;;2.10;99.90;;;;;;5021039;28;20041;-80
2023/02/22 00:55:22;;;;;;;8.35;3.92;;;2.10;99.90;;;;;;5026314;28;20034;-80
2023/02/22 00:57:48;;;;;;;7.65;4.60;;;2.10;99.90;;;;;;5026012;28;20087;-80
2023/02/22 01:00:38;;;;;;;11.20;4.75;;;2.20;99.90;;;;;;5026466;28;20048;-80
2023/02/22 01:03:10;;;;;;;97.18;35.05;;;2.20;99.90;;;;;;5031653;28;20037;-80
2023/02/22 01:05:40;;;;;;;3.53;3.20;;;2.20;99.90;;;;;;5023024;28;20029;-80
2023/02/22 01:08:08;;;;;;;4.95;3.28;;;2.20;99.90;;;;;;5037050;28;20050;-80
2023/02/22 01:10:35;;;;;;;3.60;3.30;;;2.20;99.90;;;;;;5019283;28;20022;-80
2023/02/22 01:13:07;;;;;;;3.60;2.58;;;2.20;99.90;;;;;;5032735;28;20053;-80
2023/02/22 01:15:35;;;;;;;3.85;2.65;;;2.20;99.90;;;;;;5030013;28;20022;-80
2023/02/22 01:18:01;;;;;;;3.53;3.10;;;2.20;99.90;;;;;;5022060;28;20038;-80
2023/02/22 01:20:30;;;;;;;3.85;2.55;;;2.10;99.90;;;;;;5022560;28;20054;-80
2023/02/22 01:22:58;;;;;;;4.70;2.75;;;2.10;99.90;;;;;;5030239;28;20034;-80
2023/02/22 01:25:26;;;;;;;3.60;2.60;;;2.10;99.90;;;;;;5031105;28;20033;-80
2023/02/22 01:27:53;;;;;;;3.47;2.75;;;2.10;99.90;;;;;;5026264;28;20038;-80
2023/02/22 01:30:22;;;;;;;3.38;2.75;;;2.10;99.90;;;;;;5026229;28;20037;-80
2023/02/22 01:32:49;;;;;;;3.85;2.55;;;1.90;99.90;;;;;;5034910;28;20107;-80
2023/02/22 01:35:17;;;;;;;3.28;2.25;;;1.90;99.90;;;;;;5017482;28;20060;-80
2023/02/22 01:37:43;;;;;;;2.75;2.53;;;1.70;99.90;;;;;;5025686;28;20557;-80
2023/02/22 01:40:15;;;;;;;3.47;2.47;;;1.70;99.90;;;;;;5017822;28;20555;-80
2023/02/22 01:42:41;;;;;;;3.72;2.97;;;1.80;99.90;;;;;;5023388;28;20042;-80
2023/02/22 01:45:40;;;;;;;5.07;3.05;;;1.80;99.90;;;;;;5004322;28;20098;-80
2023/02/22 01:48:15;;;;;;;40.40;13.68;;;1.80;99.90;;;;;;5024571;28;20034;-80
2023/02/22 01:50:53;;;;;;;46.85;14.80;;;1.80;99.90;;;;;;5018332;28;20061;-80
2023/02/22 01:53:21;;;;;;;25.83;11.27;;;1.90;99.90;;;;;;5018739;28;20034;-80
2023/02/22 01:55:47;;;;;;;;;;;1.90;99.90;;;;;;5023182;28;20646;-80
2023/02/22 01:58:15;;;;;;;30.10;10.05;;;1.90;99.90;;;;;;5012525;28;19919;-80
2023/02/22 02:00:40;;;;;;;23.80;9.73;;;1.90;99.90;;;;;;5022502;28;20053;-80
2023/02/22 02:03:15;;;;;;;2.78;2.58;;;1.90;99.90;;;;;;5023947;28;20029;-80
2023/02/22 02:05:41;;;;;;;4.65;3.13;;;1.90;99.90;;;;;;5030956;28;20053;-80
2023/02/22 02:08:30;;;;;;;11.88;5.50;;;1.90;99.90;;;;;;5023559;28;20042;-80
2023/02/22 02:10:57;;;;;;;19.17;7.25;;;1.80;99.90;;;;;;5030788;28;20111;-80
2023/02/22 02:13:25;;;;;;;40.38;12.88;;;1.80;99.90;;;;;;5021254;28;20057;-80
2023/02/22 02:15:56;;;;;;;26.70;9.30;;;1.80;99.90;;;;;;5029232;28;20061;-80
2023/02/22 02:18:23;;;;;;;7.72;4.45;;;1.90;99.90;;;;;;5019176;28;20041;-80
2023/02/22 02:20:59;;;;;;;2.92;2.67;;;1.70;99.90;;;;;;4993188;28;20042;-80
2023/02/22 02:24:11;;;;;;;2.65;2.38;;;1.50;99.90;;;;;;5026401;28;20022;-80
2023/02/22 02:26:43;;;;;;;4.30;2.65;;;1.10;99.90;;;;;;5025962;28;20034;-80
2023/02/22 02:29:42;;;;;;;4.85;2.78;;;1.00;99.90;;;;;;5028597;28;20033;-80
2023/02/22 02:32:14;;;;;;;4.80;2.10;;;1.00;99.90;;;;;;5023302;28;20102;-80
2023/02/22 02:35:10;;;;;;;2.60;2.40;;;0.90;99.90;;;;;;5012311;28;20085;-80
2023/02/22 02:38:34;;;;;;;2.63;2.42;;;0.70;99.90;;;;;;5008849;28;20037;-80
2023/02/22 02:41:09;;;;;;;3.85;2.35;;;0.80;99.90;;;;;;5016781;28;20073;-80
2023/02/22 02:43:46;;;;;;;3.38;2.40;;;0.90;99.90;;;;;;5018354;28;20042;-80
2023/02/22 02:46:19;;;;;;;3.05;2.28;;;1.00;99.90;;;;;;5006244;28;20030;-81
2023/02/22 02:49:02;;;;;;;2.15;2.00;;;1.10;99.90;;;;;;5010289;28;20116;-81
2023/02/22 02:51:33;;;;;;;4.13;2.08;;;1.10;99.90;;;;;;5016599;28;20108;-80
2023/02/22 02:54:00;;;;;;;2.50;1.83;;;1.00;99.90;;;;;;5010799;28;20644;-80
2023/02/22 02:56:26;;;;;;;4.68;2.28;;;1.00;99.90;;;;;;5014428;28;20033;-79
2023/02/22 02:58:53;;;;;;;2.40;2.20;;;1.00;99.90;;;;;;5013256;28;20533;-79
2023/02/22 03:01:34;;;;;;;1.80;1.75;;;1.10;99.90;;;;;;5011053;28;20491;-79
2023/02/22 03:04:21;;;;;;;4.25;2.70;;;0.90;99.90;;;;;;5009470;28;20029;-80
2023/02/22 03:07:09;;;;;;;2.70;2.10;;;0.90;99.90;;;;;;5012140;28;20114;-80
2023/02/22 03:09:53;;;;;;;1.98;1.88;;;0.70;99.90;;;;;;5004562;28;20034;-80
2023/02/22 03:12:47;;;;;;;7.00;2.60;;;0.70;99.90;;;;;;5013723;28;20065;-79
2023/02/22 03:15:47;;;;;;;2.47;2.05;;;0.60;99.90;;;;;;5009516;28;20088;-80
2023/02/22 03:18:43;;;;;;;2.63;1.90;;;0.50;99.90;;;;;;5009078;28;20025;-80
2023/02/22 03:21:12;;;;;;;2.33;2.10;;;0.50;99.90;;;;;;5009328;28;20026;-80
2023/02/22 03:23:55;;;;;;;2.83;2.42;;;0.50;99.90;;;;;;5014474;28;20030;-79
2023/02/22 03:26:27;;;;;;;2.22;2.03;;;0.50;99.90;;;;;;5015222;28;20045;-81
2023/02/22 03:28:54;;;;;;;2.60;2.40;;;0.50;99.90;;;;;;5007450;28;20033;-81
2023/02/22 03:31:27;;;;;;;2.80;2.22;;;0.50;99.90;;;;;;5006302;28;20042;-81
2023/02/22 03:33:58;;;;;;;2.60;2.40;;;0.40;99.90;;;;;;5012790;28;20030;-81
2023/02/22 03:36:33;;;;;;;2.85;2.42;;;0.40;99.90;;;;;;5013709;28;20081;-81
2023/02/22 03:39:03;;;;;;;2.63;2.42;;;0.50;99.90;;;;;;5010601;28;20029;-80
2023/02/22 03:41:32;;;;;;;4.85;2.50;;;0.50;99.90;;;;;;5018033;28;20049;-80
2023/02/22 03:44:14;;;;;;;3.30;2.88;;;0.70;99.90;;;;;;5010078;28;20072;-81
2023/02/22 03:46:41;;;;;;;5.05;2.90;;;0.70;99.90;;;;;;5016847;28;20019;-81
2023/02/22 03:49:25;;;;;;;5.32;3.10;;;0.70;99.90;;;;;;5007023;28;20036;-80
2023/02/22 03:51:54;;;;;;;3.80;3.38;;;0.80;99.90;;;;;;5013660;28;20038;-80
2023/02/22 03:54:23;;;;;;;4.60;3.08;;;0.90;99.90;;;;;;5014013;28;20017;-80
2023/02/22 03:56:53;;;;;;;3.47;2.65;;;0.90;99.90;;;;;;5012220;28;20033;-80
2023/02/22 03:59:24;;;;;;;4.43;2.80;;;0.90;99.90;;;;;;5008014;28;20022;-80
2023/02/22 04:01:53;;;;;;;5.78;3.10;;;1.00;99.90;;;;;;5011741;28;21334;-80
2023/02/22 04:04:20;;;;;;;5.40;2.63;;;1.00;99.90;;;;;;5013664;28;20125;-79
2023/02/22 04:06:46;;;;;;;6.43;2.92;;;0.90;99.90;;;;;;5012675;28;20533;-80
2023/02/22 04:09:13;;;;;;;4.78;3.17;;;0.80;99.90;;;;;;5013998;28;20156;-80
2023/02/22 04:11:39;;;;;;;4.28;3.20;;;0.70;99.90;;;;;;5005126;28;20041;-81
2023/02/22 04:14:04;;;;;;;5.28;3.28;;;0.80;99.90;;;;;;5009394;28;20034;-81
2023/02/22 04:16:30;;;;;;;5.55;2.47;;;0.70;99.90;;;;;;5006773;28;20038;-81
2023/02/22 04:18:56;;;;;;;3.95;2.60;;;0.70;99.90;;;;;;5003006;28;20494;-80
2023/02/22 04:21:22;;;;;;;7.68;3.28;;;0.60;99.90;;;;;;5003141;28;20050;-80
2023/02/22 04:23:47;;;;;;;5.18;3.78;;;0.60;99.90;;;;;;4999095;28;20129;-80
2023/02/22 04:26:13;;;;;;;5.35;3.13;;;0.50;99.90;;;;;;5012555;28;20029;-80
2023/02/22 04:28:39;;;;;;;3.65;3.22;;;0.60;99.90;;;;;;5014545;28;20038;-79
2023/02/22 04:31:05;;;;;;;7.43;3.38;;;0.70;99.90;;;;;;5016276;28;20044;-80
2023/02/22 04:33:31;;;;;;;4.13;3.13;;;0.70;99.90;;;;;;5020302;28;20053;-80
2023/02/22 04:35:56;;;;;;;4.55;2.65;;;0.80;99.90;;;;;;5009104;28;20052;-80
2023/02/22 04:38:24;;;;;;;5.03;3.00;;;0.90;99.90;;;;;;5010913;28;20033;-79
2023/02/22 04:40:51;;;;;;;4.72;3.17;;;0.80;99.90;;;;;;5007270;28;20064;-80
2023/02/22 04:43:17;;;;;;;4.47;3.30;;;0.70;99.90;;;;;;5010864;28;20180;-81
2023/02/22 04:45:46;;;;;;;3.83;3.33;;;0.50;99.90;;;;;;5007027;28;20034;-80
2023/02/22 04:48:12;;;;;;;5.68;2.85;;;0.40;99.90;;;;;;5010859;28;20037;-80
2023/02/22 04:50:38;;;;;;;3.17;2.88;;;0.40;99.90;;;;;;5011470;28;20038;-81
2023/02/22 04:53:04;;;;;;;5.00;2.88;;;0.50;99.90;;;;;;5009216;28;20084;-80
2023/02/22 04:55:29;;;;;;;3.00;2.72;;;0.50;99.90;;;;;;5012415;28;20029;-80
2023/02/22 04:57:56;;;;;;;4.20;3.53;;;0.50;99.90;;;;;;5017000;28;20038;-80
2023/02/22 05:00:22;;;;;;;2.67;2.45;;;0.50;99.90;;;;;;5010856;28;20030;-80
2023/02/22 05:02:49;;;;;;;3.15;2.80;;;0.30;99.90;;;;;;5006295;28;20042;-80
2023/02/22 05:05:18;;;;;;;3.35;2.60;;;0.30;99.90;;;;;;4998736;28;20031;-80
2023/02/22 05:07:43;;;;;;;6.07;3.28;;;0.30;99.90;;;;;;5005607;28;20186;-80
2023/02/22 05:10:10;;;;;;;4.45;3.42;;;0.30;99.90;;;;;;5015364;28;20566;-80
2023/02/22 05:12:36;;;;;;;4.88;3.35;;;0.30;99.90;;;;;;5014041;28;20040;-80
2023/02/22 05:15:04;;;;;;;3.28;2.92;;;0.40;99.90;;;;;;5009504;28;20015;-81
2023/02/22 05:17:29;;;;;;;5.47;3.78;;;0.40;99.90;;;;;;5010052;28;20030;-80
2023/02/22 05:19:55;;;;;;;4.55;3.45;;;0.40;99.90;;;;;;5014837;28;20034;-80
2023/02/22 05:22:20;;;;;;;7.30;3.08;;;0.50;99.90;;;;;;5018565;28;20053;-82
2023/02/22 05:24:46;;;;;;;3.88;3.10;;;0.50;99.90;;;;;;5014710;28;20034;-80
2023/02/22 05:27:12;;;;;;;5.07;3.47;;;0.50;99.90;;;;;;5014332;28;20033;-80
2023/02/22 05:29:38;;;;;;;3.95;3.10;;;0.40;99.90;;;;;;5019316;28;20067;-80
2023/02/22 05:32:06;;;;;;;7.00;2.95;;;0.40;99.90;;;;;;5018086;28;20042;-80
2023/02/22 05:34:32;;;;;;;3.63;2.92;;;0.20;99.90;;;;;;5005576;28;20065;-80
2023/02/22 05:36:57;;;;;;;3.55;2.65;;;0.20;99.90;;;;;;5015177;28;20367;-79
2023/02/22 05:39:24;;;;;;;5.90;3.45;;;0.30;99.90;;;;;;5016727;28;20128;-78
2023/02/22 05:41:49;;;;;;;5.43;3.10;;;0.30;99.90;;;;;;5011852;28;20030;-80
2023/02/22 05:44:15;;;;;;;4.68;3.78;;;0.20;99.90;;;;;;5016822;28;20044;-80
2023/02/22 05:46:41;;;;;;;4.45;3.05;;;0.10;99.90;;;;;;5013867;28;20029;-80
2023/02/22 05:49:07;;;;;;;3.28;2.90;;;0.10;99.90;;;;;;5017724;28;20030;-80
2023/02/22 05:51:33;;;;;;;6.10;3.17;;;0.00;99.90;;;;;;5016670;28;20030;-81
2023/02/22 05:53:58;;;;;;;3.83;3.22;;;-0.10;99.90;;;;;;5014682;28;20125;-79
2023/02/22 05:56:29;;;;;;;3.55;3.15;;;0.00;99.90;;;;;;5017032;28;20524;-79
2023/02/22 05:58:58;;;;;;;4.40;3.33;;;0.10;99.90;;;;;;5014888;28;20033;-79
2023/02/22 06:01:25;;;;;;;5.28;3.55;;;0.20;99.90;;;;;;5011157;28;20371;-80
2023/02/22 06:03:53;;;;;;;6.88;4.07;;;0.30;99.90;;;;;;5018456;28;20026;-80
2023/02/22 06:06:19;;;;;;;;;;;0.30;99.90;;;;;;5019266;28;20453;-81
2023/02/22 06:08:45;;;;;;;4.40;3.50;;;0.30;99.90;;;;;;5016185;28;19976;-80
2023/02/22 06:11:12;;;;;;;3.08;2.85;;;0.30;99.90;;;;;;5010275;28;20030;-79
2023/02/22 06:13:38;;;;;;;6.30;3.50;;;0.30;99.90;;;;;;5029412;28;21146;-80
2023/02/22 06:16:05;;;;;;;4.00;3.13;;;0.30;99.90;;;;;;5013456;28;20101;-79
2023/02/22 06:18:31;;;;;;;10.00;3.38;;;0.40;99.90;;;;;;5007868;28;20037;-80
2023/02/22 06:20:58;;;;;;;5.65;2.92;;;0.40;99.90;;;;;;5012265;28;20390;-78
2023/02/22 06:23:26;;;;;;;3.42;2.60;;;0.40;99.90;;;;;;5015647;28;20022;-80
2023/02/22 06:25:52;;;;;;;;;;;0.30;99.90;;;;;;5010518;28;20042;-79
2023/02/22 06:28:17;;;;;;;3.92;3.15;;;0.30;99.90;;;;;;5014179;28;19921;-79
2023/02/22 06:30:43;;;;;;;3.50;2.60;;;0.30;99.90;;;;;;5029107;28;20049;-78
2023/02/22 06:33:10;;;;;;;11.90;3.00;;;0.30;99.90;;;;;;5015551;28;20026;-78
2023/02/22 06:35:36;;;;;;;3.47;2.47;;;0.30;99.90;;;;;;5028995;28;20045;-79
2023/02/22 06:38:01;;;;;;;3.60;2.85;;;0.20;99.90;;;;;;5009402;28;20103;-80
2023/02/22 06:40:28;;;;;;;2.92;2.67;;;0.00;99.90;;;;;;5016180;28;20029;-78
2023/02/22 06:42:54;;;;;;;4.38;2.95;;;0.00;99.90;;;;;;5015119;28;20022;-78
2023/02/22 06:45:20;;;;;;;4.05;3.25;;;0.10;99.90;;;;;;5018828;28;20045;-79
2023/02/22 06:47:46;;;;;;;4.00;3.08;;;0.10;99.90;;;;;;5011628;28;20064;-79
2023/02/22 06:50:25;;;;;;;3.17;2.78;;;0.20;99.90;;;;;;5019183;28;20557;-79
2023/02/22 06:52:51;;;;;;;2.92;2.60;;;0.10;99.90;;;;;;5017342;28;20145;-80
2023/02/22 06:55:25;;;;;;;6.68;3.40;;;0.10;99.90;;;;;;5018072;28;20534;-79
2023/02/22 06:57:51;;;;;;;3.85;2.95;;;0.10;99.90;;;;;;5006957;28;20457;-80
2023/02/22 07:00:23;;;;;;;7.25;3.17;;;0.10;99.90;;;;;;5010708;28;20037;-79
2023/02/22 07:02:56;;;;;;;4.68;2.72;;;0.10;99.90;;;;;;5005949;28;20033;-79
2023/02/22 07:05:23;;;;;;;5.95;3.47;;;0.10;99.90;;;;;;5017871;28;20088;-79
2023/02/22 07:07:54;;;;;;;4.15;2.78;;;0.10;99.90;;;;;;5010039;28;20058;-79
2023/02/22 07:10:21;;;;;;;5.47;3.55;;;0.10;99.90;;;;;;5005347;28;20513;-79
2023/02/22 07:12:47;;;;;;;3.50;3.20;;;0.20;99.90;;;;;;5008260;28;20054;-79
2023/02/22 07:15:16;;;;;;;3.97;3.33;;;0.20;99.90;;;;;;5008997;28;20038;-79
2023/02/22 07:17:43;;;;;;;3.42;3.13;;;0.20;99.90;;;;;;5010988;28;20045;-78
2023/02/22 07:20:15;;;;;;;7.13;4.07;;;0.20;99.90;;;;;;5011546;28;20493;-79
2023/02/22 07:22:41;;;;;;;4.35;3.45;;;0.30;99.90;;;;;;5011083;28;20042;-80
2023/02/22 07:25:11;;;;;;;7.30;4.00;;;0.30;99.90;;;;;;5011683;28;20032;-80
2023/02/22 07:27:56;;;;;;;4.93;4.28;;;0.40;99.90;;;;;;5009833;28;20029;-80
2023/02/22 07:30:30;;;;;;;5.95;3.63;;;0.50;99.90;;;;;;5004683;28;20462;-80
2023/02/22 07:32:58;;;;;;;7.43;2.88;;;0.60;99.90;;;;;;5011751;28;20755;-80
2023/02/22 07:35:30;;;;;;;7.13;4.05;;;0.60;99.90;;;;;;5003780;28;20104;-79
2023/02/22 07:37:57;;;;;;;7.50;4.85;;;0.70;99.90;;;;;;5007388;28;20038;-80
2023/02/22 07:40:25;;;;;;;5.50;4.40;;;0.80;99.90;;;;;;5009639;28;20040;-79
2023/02/22 07:42:54;;;;;;;4.25;3.72;;;0.90;99.90;;;;;;5012798;28;20532;-79
2023/02/22 07:45:20;;;;;;;;;;;0.90;99.90;;;;;;5014932;28;20037;-79
2023/02/22 07:47:46;;;;;;;4.68;3.15;;;0.90;99.90;;;;;;5013328;28;20400;-79
2023/02/22 07:50:15;;;;;;;6.40;4.47;;;1.00;99.90;;;;;;5011503;28;20117;-79
2023/02/22 07:52:48;;;;;;;9.55;4.70;;;1.10;99.90;;;;;;5011067;28;20048;-78
2023/02/22 07:55:16;;;;;;;6.68;4.53;;;1.10;99.90;;;;;;5015502;28;20034;-78
2023/02/22 07:57:46;;;;;;;6.63;4.70;;;1.20;99.90;;;;;;5002144;28;20037;-79
2023/02/22 08:00:25;;;;;;;6.25;4.22;;;1.30;99.90;;;;;;5011184;28;20329;-79
2023/02/22 08:02:51;;;;;;;5.03;3.95;;;1.30;99.90;;;;;;4999895;28;20486;-79
2023/02/22 08:05:18;;;;;;;6.57;3.67;;;1.50;99.90;;;;;;5015483;28;20033;-80
2023/02/22 08:07:53;;;;;;;7.40;4.80;;;1.60;99.90;;;;;;5002420;28;20026;-80
2023/02/22 08:10:22;;;;;;;5.55;3.95;;;1.70;99.90;;;;;;5016478;28;20033;-80
2023/02/22 08:12:48;;;;;;;5.80;3.78;;;1.80;99.90;;;;;;5015807;28;20045;-81
2023/02/22 08:15:41;;;;;;;6.68;4.18;;;1.90;99.90;;;;;;5011799;28;20049;-81
2023/02/22 08:18:17;;;;;;;7.15;4.35;;;2.00;99.90;;;;;;5015488;28;20038;-80
2023/02/22 08:21:00;;;;;;;6.40;4.18;;;2.10;99.90;;;;;;5014470;28;20030;-80
2023/02/22 08:23:26;;;;;;;5.75;4.22;;;2.20;99.90;;;;;;5007250;28;20026;-80
2023/02/22 08:25:52;;;;;;;7.32;4.78;;;2.30;99.90;;;;;;5004464;28;20034;-81
2023/02/22 08:28:21;;;;;;;6.55;4.68;;;2.50;99.90;;;;;;5007665;28;20065;-80
2023/02/22 08:30:47;;;;;;;8.52;5.07;;;2.60;99.90;;;;;;5016706;28;20116;-81
2023/02/22 08:33:15;;;;;;;9.63;5.43;;;2.70;99.90;;;;;;5003393;28;20055;-81
2023/02/22 08:35:41;;;;;;;8.52;6.20;;;2.90;99.90;;;;;;5010492;28;20054;-79
2023/02/22 08:38:13;;;;;;;7.78;5.15;;;3.10;99.90;;;;;;5009756;28;20026;-81
2023/02/22 08:40:45;;;;;;;8.20;5.82;;;3.40;99.90;;;;;;5014778;28;20084;-79
2023/02/22 08:43:12;;;;;;;9.77;6.47;;;3.50;99.90;;;;;;5007387;28;20037;-81
2023/02/22 08:45:38;;;;;;;8.63;6.03;;;3.80;99.90;;;;;;5010351;28;20525;-81
2023/02/22 08:48:03;;;;;;;10.50;6.28;;;3.90;99.90;;;;;;5011639;28;20046;-80
2023/02/22 08:50:33;;;;;;;7.07;6.10;;;4.20;99.90;;;;;;5004615;28;20526;-81
2023/02/22 08:53:00;;;;;;;10.10;5.95;;;4.40;99.90;;;;;;5006401;28;20072;-81
2023/02/22 08:55:30;;;;;;;9.05;6.15;;;4.50;99.90;;;;;;5012350;28;20034;-81
2023/02/22 08:57:57;;;;;;;10.70;6.72;;;4.70;99.90;;;;;;5012107;28;20032;-81
2023/02/22 09:00:24;;;;;;;10.80;6.68;;;4.90;99.90;;;;;;5013335;28;20033;-81
2023/02/22 09:02:50;;;;;;;8.07;6.28;;;5.20;99.90;;;;;;5015753;28;20121;-80
2023/02/22 09:05:16;;;;;;;8.18;6.18;;;5.30;99.90;;;;;;5013496;28;20023;-81
2023/02/22 09:07:43;;;;;;;9.98;6.90;;;5.60;99.90;;;;;;5013876;28;20045;-81
2023/02/22 09:10:23;;;;;;;6.68;5.57;;;5.80;99.90;;;;;;5010629;28;20434;-82
2023/02/22 09:12:50;;;;;;;8.50;5.70;;;6.00;99.90;;;;;;5025992;28;20121;-82
2023/02/22 09:15:16;;;;;;;7.78;5.50;;;6.20;99.90;;;;;;5014399;28;20022;-83
2023/02/22 09:17:45;;;;;;;6.07;4.60;;;6.40;99.90;;;;;;5011502;28;20469;-82
2023/02/22 09:20:11;;;;;;;6.22;4.88;;;6.60;99.90;;;;;;5008351;28;20548;-82
2023/02/22 09:22:37;;;;;;;4.63;4.15;;;6.80;99.90;;;;;;5013629;28;20064;-82
2023/02/22 09:25:15;;;;;;;6.22;5.10;;;6.90;99.90;;;;;;5017556;28;20054;-83
2023/02/22 09:28:02;;;;;;;4.82;4.38;;;7.10;99.90;;;;;;5017801;28;20042;-82
2023/02/22 09:30:33;;;;;;;7.15;4.40;;;7.30;99.90;;;;;;5016072;28;20129;-82
2023/02/22 09:33:04;;;;;;;6.35;3.97;;;7.50;99.90;;;;;;5010426;28;20034;-83
2023/02/22 09:35:30;;;;;;;4.35;3.95;;;7.60;99.90;;;;;;5011936;28;20054;-82
2023/02/22 09:37:59;;;;;;;11.43;3.95;;;7.60;99.90;;;;;;5021956;28;20446;-82
2023/02/22 09:40:31;;;;;;;9.55;4.25;;;7.70;99.90;;;;;;5006540;28;20034;-82
2023/02/22 09:43:16;;;;;;;4.78;2.67;;;7.60;99.90;;;;;;5005080;28;20042;-82
2023/02/22 09:46:00;;;;;;;6.85;4.18;;;7.70;99.90;;;;;;5007162;28;20445;-85
2023/02/22 09:48:26;;;;;;;5.03;3.85;;;7.70;99.90;;;;;;5019843;28;20123;-81
2023/02/22 09:50:57;;;;;;;4.55;3.58;;;7.80;99.90;;;;;;5012690;28;20080;-82
2023/02/22 09:53:34;;;;;;;4.25;3.80;;;8.00;99.90;;;;;;5013009;28;20101;-82
2023/02/22 09:56:11;;;;;;;6.07;3.33;;;8.20;99.90;;;;;;5016637;28;20266;-83
2023/02/22 09:58:44;;;;;;;3.60;2.90;;;8.30;99.90;;;;;;5029064;28;20300;-83
2023/02/22 10:01:13;;;;;;;4.00;3.45;;;8.50;99.90;;;;;;5012902;28;20047;-81
2023/02/22 10:04:18;;;;;;;5.00;3.13;;;8.70;99.90;;;;;;5018704;28;20031;-82
2023/02/22 10:07:04;;;;;;;4.05;2.90;;;9.00;99.90;;;;;;5010014;28;20035;-81
2023/02/22 10:09:44;;;;;;;3.28;2.97;;;8.90;99.90;;;;;;5010477;28;20026;-83
2023/02/22 10:12:22;;;;;;;3.80;2.60;;;9.10;99.90;;;;;;5017302;28;20037;-83
2023/02/22 10:15:06;;;;;;;4.05;2.75;;;9.20;99.90;;;;;;5017645;28;20026;-83
2023/02/22 10:18:02;;;;;;;5.65;3.35;;;9.20;99.90;;;;;;5019567;28;20014;-83
2023/02/22 10:20:54;;;;;;;6.63;3.45;;;9.30;99.90;;;;;;5013555;28;20465;-82
2023/02/22 10:23:26;;;;;;;8.80;3.00;;;9.30;99.90;;;;;;5008040;28;20045;-82
2023/02/22 10:26:12;;;;;;;6.60;3.53;;;9.40;99.90;;;;;;5005681;28;20042;-82
2023/02/22 10:28:42;;;;;;;4.10;2.80;;;9.50;99.90;;;;;;5021397;28;20038;-82
2023/02/22 10:31:18;;;;;;;3.10;2.38;;;9.60;99.90;;;;;;5014892;28;20129;-82
2023/02/22 10:34:02;;;;;;;5.57;3.10;;;9.70;99.90;;;;;;5013794;28;20052;-81
2023/02/22 10:36:28;;;;;;;4.50;3.08;;;9.80;99.90;;;;;;5016702;28;20042;-82
2023/02/22 10:39:12;;;;;;;5.28;3.10;;;9.90;99.90;;;;;;5018159;28;20038;-81
2023/02/22 10:41:51;;;;;;;6.00;3.28;;;10.20;99.90;;;;;;5017431;28;20076;-82
2023/02/22 10:44:20;;;;;;;4.93;3.53;;;10.30;99.90;;;;;;5015343;28;20030;-82
2023/02/22 10:46:47;;;;;;;3.22;2.90;;;10.40;99.90;;;;;;5018836;28;20042;-81
2023/02/22 10:49:23;;;;;;;4.03;3.08;;;10.50;99.90;;;;;;5015675;28;20030;-81
2023/02/22 10:52:16;;;;;;;7.03;2.80;;;10.30;99.90;;;;;;5011280;28;20040;-83
2023/02/22 10:54:46;;;;;;;3.80;3.03;;;10.30;99.90;;;;;;5014528;28;20088;-82
2023/02/22 10:57:12;;;;;;;5.97;3.38;;;10.40;99.90;;;;;;5009576;28;20042;-83
2023/02/22 10:59:41;;;;;;;3.10;2.65;;;10.60;99.90;;;;;;5006687;28;20026;-83
2023/02/22 11:02:22;;;;;;;4.80;2.92;;;10.60;99.90;;;;;;5009432;28;20054;-82
2023/02/22 11:04:54;;;;;;;3.47;2.40;;;10.80;99.90;;;;;;5008124;28;20387;-83
2023/02/22 11:07:44;;;;;;;5.88;2.90;;;10.90;99.90;;;;;;5007981;28;20116;-84
2023/02/22 11:10:10;;;;;;;3.05;2.17;;;11.00;99.90;;;;;;5008554;28;20050;-83
2023/02/22 11:12:39;;;;;;;3.20;2.33;;;11.10;98.50;;;;;;5011375;28;20034;-83
2023/02/22 11:15:23;;;;;;;3.80;2.35;;;11.10;96.60;;;;;;5026435;28;20032;-83
2023/02/22 11:17:56;;;;;;;3.45;2.70;;;11.20;98.00;;;;;;5013078;28;20042;-83
2023/02/22 11:20:27;;;;;;;2.38;2.17;;;11.30;97.50;;;;;;5008681;28;20387;-82
2023/02/22 11:22:58;;;;;;;4.53;2.67;;;11.40;97.90;;;;;;5009420;28;20041;-83
2023/02/22 11:25:29;;;;;;;3.70;2.50;;;11.50;98.60;;;;;;5008440;28;20085;-84
2023/02/22 11:28:05;;;;;;;2.30;1.83;;;11.60;97.70;;;;;;5011486;28;20117;-83
2023/02/22 11:30:34;;;;;;;3.35;2.42;;;11.60;93.50;;;;;;5011402;28;20030;-83
2023/02/22 11:33:05;;;;;;;;;;;11.70;93.00;;;;;;5010742;28;20030;-85
2023/02/22 11:35:51;;;;;;;4.38;3.05;;;11.70;95.00;;;;;;5015610;28;19925;-84
2023/02/22 11:38:24;;;;;;;3.33;2.63;;;11.80;98.10;;;;;;5010355;28;20714;-84
2023/02/22 11:41:15;;;;;;;5.30;2.50;;;12.00;95.00;;;;;;5003777;28;20026;-84
2023/02/22 11:43:46;;;;;;;8.55;5.65;;;12.10;95.90;;;;;;5012656;28;20034;-84
2023/02/22 11:46:20;;;;;;;3.92;3.50;;;12.00;94.10;;;;;;5014941;28;20076;-84
2023/02/22 11:49:03;;;;;;;5.45;2.85;;;12.10;91.90;;;;;;5004927;28;20434;-84
2023/02/22 11:51:51;;;;;;;3.50;2.67;;;12.20;93.10;;;;;;5005458;28;20034;-84
2023/02/22 11:54:32;;;;;;;3.03;2.72;;;12.10;92.70;;;;;;5017866;28;20097;-84
2023/02/22 11:57:10;;;;;;;4.03;2.67;;;12.20;94.70;;;;;;5010596;28;20076;-84
2023/02/22 11:59:56;;;;;;;3.92;2.55;;;12.30;92.50;;;;;;5012469;28;20037;-84
2023/02/22 12:02:22;;;;;;;3.33;2.60;;;12.40;92.40;;;;;;5004053;28;20519;-84
2023/02/22 12:05:17;;;;;;;4.47;2.47;;;12.60;91.40;;;;;;5012736;28;20030;-84
2023/02/22 12:08:04;;;;;;;5.65;2.40;;;12.70;86.10;;;;;;5011889;28;20061;-84
2023/02/22 12:10:45;;;;;;;4.55;2.65;;;12.80;78.30;;;;;;5015412;28;20025;-84
2023/02/22 12:13:33;;;;;;;1.48;1.38;;;12.80;83.00;;;;;;5010645;28;20115;-84
2023/02/22 12:16:17;;;;;;;2.50;2.10;;;12.90;79.90;;;;;;5017524;28;20057;-85
2023/02/22 12:19:21;;;;;;;2.55;1.98;;;12.90;86.80;;;;;;5024718;28;20042;-84
2023/02/22 12:21:54;;;;;;;2.50;2.30;;;12.90;76.10;;;;;;5028188;28;20519;-85
2023/02/22 12:24:26;;;;;;;3.08;2.70;;;12.90;79.00;;;;;;5014908;28;20046;-85
2023/02/22 12:27:09;;;;;;;8.50;2.50;;;13.00;75.00;;;;;;5009384;28;20026;-84
2023/02/22 12:29:49;;;;;;;2.65;1.98;;;13.00;74.10;;;;;;5008854;28;20108;-85
2023/02/22 12:32:41;;;;;;;2.60;2.17;;;12.90;75.40;;;;;;5008257;28;20066;-85
2023/02/22 12:35:14;;;;;;;3.15;2.30;;;12.90;83.90;;;;;;5010824;28;20093;-85
2023/02/22 12:38:03;;;;;;;4.95;2.38;;;13.00;84.20;;;;;;5010196;28;20044;-84
2023/02/22 12:40:57;;;;;;;5.72;2.83;;;13.20;80.20;;;;;;5007027;28;20058;-84
2023/02/22 12:43:28;;;;;;;2.78;2.38;;;13.10;82.20;;;;;;5001473;28;20038;-85
2023/02/22 12:46:20;;;;;;;3.65;2.90;;;13.20;84.30;;;;;;5008190;28;20026;-92
2023/02/22 12:49:16;;;;;;;3.28;2.20;;;13.20;83.10;;;;;;5012151;28;20069;-84
2023/02/22 12:51:57;;;;;;;2.53;2.28;;;13.40;79.50;;;;;;5017890;28;20038;-85
2023/02/22 12:54:49;;;;;;;3.35;2.35;;;13.30;78.50;;;;;;5010986;28;20030;-84
2023/02/22 12:57:43;;;;;;;2.40;2.20;;;13.40;76.50;;;;;;5011847;28;20090;-85
2023/02/22 13:00:21;;;;;;;4.60;2.70;;;13.40;67.00;;;;;;5005970;28;20034;-88
2023/02/22 13:03:02;;;;;;;3.85;1.80;;;13.40;66.60;;;;;;5010179;28;20066;-86
2023/02/22 13:05:36;;;;;;;6.03;2.70;;;13.40;71.30;;;;;;5010060;28;20101;-86
2023/02/22 13:08:19;;;;;;;9.30;2.40;;;13.40;71.00;;;;;;5007537;28;20026;-85
2023/02/22 13:10:53;;;;;;;3.47;2.70;;;13.60;75.80;;;;;;5012628;28;20021;-86
2023/02/22 13:13:55;;;;;;;6.90;2.55;;;13.60;75.30;;;;;;5003112;28;20077;-84
2023/02/22 13:16:21;;;;;;;4.38;2.90;;;13.70;72.30;;;;;;5018016;28;20587;-85
2023/02/22 13:19:27;;;;;;;7.05;3.00;;;13.70;74.60;;;;;;5005102;28;20038;-85
2023/02/22 13:22:18;;;;;;;5.63;2.63;;;13.80;71.30;;;;;;5008811;28;20044;-85
2023/02/22 13:25:27;;;;;;;4.50;2.83;;;13.90;71.30;;;;;;5001993;28;20049;-84